sensor_id;sensor_type;location;lat;lon;timestamp;P1;durP1;ratioP1;P2;durP2;ratioP2
24163;SDS011;12319;49.204;8.116;2023-04-09T00:00:37;4.85;;;2.10;;
24163;SDS011;12319;49.204;8.116;2023-04-09T00:03:02;4.15;;;2.15;;
24163;SDS011;12319;49.204;8.116;2023-04-09T00:05:28;4.47;;;2.27;;
24163;SDS011;12319;49.204;8.116;2023-04-09T00:07:53;4.75;;;2.10;;
24163;SDS011;12319;49.204;8.116;2023-04-09T00:10:19;4.00;;;2.00;;
24163;SDS011;12319;49.204;8.116;2023-04-09T00:12:45;4.07;;;1.85;;
24163;SDS011;12319;49.204;8.116;2023-04-09T00:15:10;4.10;;;2.07;;
24163;SDS011;12319;49.204;8.116;2023-04-09T00:17:36;4.43;;;2.20;;
24163;SDS011;12319;49.204;8.116;2023-04-09T00:20:02;3.95;;;2.00;;
24163;SDS011;12319;49.204;8.116;2023-04-09T00:22:28;4.22;;;1.98;;
24163;SDS011;12319;49.204;8.116;2023-04-09T00:24:54;4.70;;;2.22;;
24163;SDS011;12319;49.204;8.116;2023-04-09T00:27:19;4.67;;;2.10;;
24163;SDS011;12319;49.204;8.116;2023-04-09T00:29:45;4.50;;;2.20;;
24163;SDS011;12319;49.204;8.116;2023-04-09T00:32:11;4.43;;;2.22;;
24163;SDS011;12319;49.204;8.116;2023-04-09T00:34:37;4.38;;;2.20;;
24163;SDS011;12319;49.204;8.116;2023-04-09T00:37:03;4.07;;;2.03;;
24163;SDS011;12319;49.204;8.116;2023-04-09T00:39:29;3.65;;;2.00;;
24163;SDS011;12319;49.204;8.116;2023-04-09T00:41:59;3.95;;;2.08;;
24163;SDS011;12319;49.204;8.116;2023-04-09T00:44:26;4.28;;;2.00;;
24163;SDS011;12319;49.204;8.116;2023-04-09T00:46:53;4.07;;;2.07;;
24163;SDS011;12319;49.204;8.116;2023-04-09T00:49:19;4.70;;;2.08;;
24163;SDS011;12319;49.204;8.116;2023-04-09T00:51:45;3.70;;;1.98;;
24163;SDS011;12319;49.204;8.116;2023-04-09T00:54:11;4.10;;;2.00;;
24163;SDS011;12319;49.204;8.116;2023-04-09T00:56:37;4.20;;;1.92;;
24163;SDS011;12319;49.204;8.116;2023-04-09T00:59:02;4.53;;;2.20;;
24163;SDS011;12319;49.204;8.116;2023-04-09T01:01:28;4.68;;;2.20;;
24163;SDS011;12319;49.204;8.116;2023-04-09T01:03:54;4.45;;;1.92;;
24163;SDS011;12319;49.204;8.116;2023-04-09T01:09:02;4.50;;;2.00;;
24163;SDS011;12319;49.204;8.116;2023-04-09T01:11:45;3.97;;;1.90;;
24163;SDS011;12319;49.204;8.116;2023-04-09T01:16:43;4.65;;;2.00;;
24163;SDS011;12319;49.204;8.116;2023-04-09T01:22:05;4.78;;;2.00;;
24163;SDS011;12319;49.204;8.116;2023-04-09T01:25:18;4.13;;;1.90;;
24163;SDS011;12319;49.204;8.116;2023-04-09T01:27:54;4.93;;;2.13;;
24163;SDS011;12319;49.204;8.116;2023-04-09T01:30:28;4.80;;;2.00;;
24163;SDS011;12319;49.204;8.116;2023-04-09T01:32:55;4.05;;;1.90;;
24163;SDS011;12319;49.204;8.116;2023-04-09T01:35:21;3.97;;;2.03;;
24163;SDS011;12319;49.204;8.116;2023-04-09T01:37:49;4.30;;;2.00;;
24163;SDS011;12319;49.204;8.116;2023-04-09T01:40:17;3.45;;;1.73;;
24163;SDS011;12319;49.204;8.116;2023-04-09T01:42:42;5.18;;;1.80;;
24163;SDS011;12319;49.204;8.116;2023-04-09T01:45:09;4.93;;;2.05;;
24163;SDS011;12319;49.204;8.116;2023-04-09T01:47:37;4.00;;;1.95;;
24163;SDS011;12319;49.204;8.116;2023-04-09T01:50:03;5.22;;;2.10;;
24163;SDS011;12319;49.204;8.116;2023-04-09T01:52:29;4.30;;;2.22;;
24163;SDS011;12319;49.204;8.116;2023-04-09T01:54:55;4.70;;;2.00;;
24163;SDS011;12319;49.204;8.116;2023-04-09T01:57:20;4.57;;;2.20;;
24163;SDS011;12319;49.204;8.116;2023-04-09T01:59:46;4.67;;;2.20;;
24163;SDS011;12319;49.204;8.116;2023-04-09T02:02:14;5.20;;;2.15;;
24163;SDS011;12319;49.204;8.116;2023-04-09T02:04:45;4.40;;;1.83;;
24163;SDS011;12319;49.204;8.116;2023-04-09T02:09:50;4.80;;;2.28;;
24163;SDS011;12319;49.204;8.116;2023-04-09T02:12:18;4.18;;;2.00;;
24163;SDS011;12319;49.204;8.116;2023-04-09T02:14:45;4.50;;;2.13;;
24163;SDS011;12319;49.204;8.116;2023-04-09T02:17:12;4.63;;;2.20;;
24163;SDS011;12319;49.204;8.116;2023-04-09T02:19:47;4.15;;;2.00;;
24163;SDS011;12319;49.204;8.116;2023-04-09T02:22:13;4.78;;;2.33;;
24163;SDS011;12319;49.204;8.116;2023-04-09T02:24:40;4.18;;;2.05;;
24163;SDS011;12319;49.204;8.116;2023-04-09T02:27:05;4.37;;;2.17;;
24163;SDS011;12319;49.204;8.116;2023-04-09T02:29:32;4.95;;;2.20;;
24163;SDS011;12319;49.204;8.116;2023-04-09T02:31:57;4.75;;;2.10;;
24163;SDS011;12319;49.204;8.116;2023-04-09T02:34:23;4.40;;;2.17;;
24163;SDS011;12319;49.204;8.116;2023-04-09T02:36:49;4.88;;;2.28;;
24163;SDS011;12319;49.204;8.116;2023-04-09T02:39:14;4.18;;;2.00;;
24163;SDS011;12319;49.204;8.116;2023-04-09T02:41:40;4.83;;;2.13;;
24163;SDS011;12319;49.204;8.116;2023-04-09T02:44:06;4.23;;;2.00;;
24163;SDS011;12319;49.204;8.116;2023-04-09T02:46:31;4.55;;;2.10;;
24163;SDS011;12319;49.204;8.116;2023-04-09T02:48:57;4.83;;;1.87;;
24163;SDS011;12319;49.204;8.116;2023-04-09T02:51:22;6.78;;;2.47;;
24163;SDS011;12319;49.204;8.116;2023-04-09T02:53:48;3.97;;;1.97;;
24163;SDS011;12319;49.204;8.116;2023-04-09T02:56:14;4.57;;;1.90;;
24163;SDS011;12319;49.204;8.116;2023-04-09T02:58:39;5.30;;;2.17;;
24163;SDS011;12319;49.204;8.116;2023-04-09T03:01:05;4.40;;;2.07;;
24163;SDS011;12319;49.204;8.116;2023-04-09T03:03:30;3.83;;;1.90;;
24163;SDS011;12319;49.204;8.116;2023-04-09T03:05:56;4.43;;;2.10;;
24163;SDS011;12319;49.204;8.116;2023-04-09T03:08:21;3.97;;;1.97;;
24163;SDS011;12319;49.204;8.116;2023-04-09T03:10:47;4.97;;;2.40;;
24163;SDS011;12319;49.204;8.116;2023-04-09T03:13:13;4.93;;;2.23;;
24163;SDS011;12319;49.204;8.116;2023-04-09T03:15:38;4.93;;;2.13;;
24163;SDS011;12319;49.204;8.116;2023-04-09T03:18:04;4.43;;;1.92;;
24163;SDS011;12319;49.204;8.116;2023-04-09T03:20:29;4.37;;;2.00;;
24163;SDS011;12319;49.204;8.116;2023-04-09T03:22:55;4.00;;;2.15;;
24163;SDS011;12319;49.204;8.116;2023-04-09T03:25:21;4.20;;;2.00;;
24163;SDS011;12319;49.204;8.116;2023-04-09T03:27:46;4.30;;;1.97;;
24163;SDS011;12319;49.204;8.116;2023-04-09T03:30:12;5.05;;;2.25;;
24163;SDS011;12319;49.204;8.116;2023-04-09T03:32:37;4.70;;;2.30;;
24163;SDS011;12319;49.204;8.116;2023-04-09T03:35:03;5.00;;;2.30;;
24163;SDS011;12319;49.204;8.116;2023-04-09T03:37:29;4.47;;;2.28;;
24163;SDS011;12319;49.204;8.116;2023-04-09T03:39:54;4.13;;;2.10;;
24163;SDS011;12319;49.204;8.116;2023-04-09T03:42:20;4.78;;;2.20;;
24163;SDS011;12319;49.204;8.116;2023-04-09T03:44:45;4.53;;;1.93;;
24163;SDS011;12319;49.204;8.116;2023-04-09T03:47:11;4.30;;;2.20;;
24163;SDS011;12319;49.204;8.116;2023-04-09T03:49:36;4.43;;;2.13;;
24163;SDS011;12319;49.204;8.116;2023-04-09T03:52:02;4.55;;;2.38;;
24163;SDS011;12319;49.204;8.116;2023-04-09T03:54:28;4.57;;;2.10;;
24163;SDS011;12319;49.204;8.116;2023-04-09T03:56:54;4.40;;;2.20;;
24163;SDS011;12319;49.204;8.116;2023-04-09T03:59:20;5.72;;;2.30;;
24163;SDS011;12319;49.204;8.116;2023-04-09T04:01:46;4.37;;;2.27;;
24163;SDS011;12319;49.204;8.116;2023-04-09T04:04:12;4.43;;;2.22;;
24163;SDS011;12319;49.204;8.116;2023-04-09T04:06:37;4.57;;;2.35;;
24163;SDS011;12319;49.204;8.116;2023-04-09T04:09:03;4.77;;;2.17;;
24163;SDS011;12319;49.204;8.116;2023-04-09T04:11:29;5.40;;;2.33;;
24163;SDS011;12319;49.204;8.116;2023-04-09T04:13:54;4.93;;;2.37;;
24163;SDS011;12319;49.204;8.116;2023-04-09T04:16:20;4.93;;;2.20;;
24163;SDS011;12319;49.204;8.116;2023-04-09T04:18:46;4.50;;;2.03;;
24163;SDS011;12319;49.204;8.116;2023-04-09T04:21:12;4.77;;;2.17;;
24163;SDS011;12319;49.204;8.116;2023-04-09T04:23:38;4.40;;;2.05;;
24163;SDS011;12319;49.204;8.116;2023-04-09T04:26:07;5.20;;;2.25;;
24163;SDS011;12319;49.204;8.116;2023-04-09T04:28:34;5.20;;;2.60;;
24163;SDS011;12319;49.204;8.116;2023-04-09T04:31:00;4.55;;;2.20;;
24163;SDS011;12319;49.204;8.116;2023-04-09T04:33:26;4.63;;;2.17;;
24163;SDS011;12319;49.204;8.116;2023-04-09T04:35:52;4.80;;;2.07;;
24163;SDS011;12319;49.204;8.116;2023-04-09T04:38:17;4.87;;;2.20;;
24163;SDS011;12319;49.204;8.116;2023-04-09T04:40:43;4.10;;;1.95;;
24163;SDS011;12319;49.204;8.116;2023-04-09T04:43:08;5.23;;;2.00;;
24163;SDS011;12319;49.204;8.116;2023-04-09T04:45:34;4.00;;;2.13;;
24163;SDS011;12319;49.204;8.116;2023-04-09T04:47:59;4.45;;;2.15;;
24163;SDS011;12319;49.204;8.116;2023-04-09T04:50:25;4.07;;;1.95;;
24163;SDS011;12319;49.204;8.116;2023-04-09T04:52:50;5.10;;;2.40;;
24163;SDS011;12319;49.204;8.116;2023-04-09T04:55:16;4.45;;;2.13;;
24163;SDS011;12319;49.204;8.116;2023-04-09T04:57:42;4.87;;;2.30;;
24163;SDS011;12319;49.204;8.116;2023-04-09T05:00:07;5.13;;;2.50;;
24163;SDS011;12319;49.204;8.116;2023-04-09T05:02:33;5.00;;;2.40;;
24163;SDS011;12319;49.204;8.116;2023-04-09T05:04:59;4.83;;;2.20;;
24163;SDS011;12319;49.204;8.116;2023-04-09T05:07:24;5.18;;;2.60;;
24163;SDS011;12319;49.204;8.116;2023-04-09T05:09:50;6.27;;;2.50;;
24163;SDS011;12319;49.204;8.116;2023-04-09T05:12:15;5.00;;;2.45;;
24163;SDS011;12319;49.204;8.116;2023-04-09T05:14:42;4.37;;;2.10;;
24163;SDS011;12319;49.204;8.116;2023-04-09T05:17:07;4.93;;;2.03;;
24163;SDS011;12319;49.204;8.116;2023-04-09T05:19:33;4.87;;;2.30;;
24163;SDS011;12319;49.204;8.116;2023-04-09T05:21:58;4.70;;;2.28;;
24163;SDS011;12319;49.204;8.116;2023-04-09T05:24:24;5.07;;;2.60;;
24163;SDS011;12319;49.204;8.116;2023-04-09T05:26:50;5.40;;;2.38;;
24163;SDS011;12319;49.204;8.116;2023-04-09T05:29:15;4.60;;;2.20;;
24163;SDS011;12319;49.204;8.116;2023-04-09T05:31:41;4.63;;;2.07;;
24163;SDS011;12319;49.204;8.116;2023-04-09T05:34:07;4.40;;;2.10;;
24163;SDS011;12319;49.204;8.116;2023-04-09T05:36:32;6.17;;;2.30;;
24163;SDS011;12319;49.204;8.116;2023-04-09T05:38:58;5.03;;;2.43;;
24163;SDS011;12319;49.204;8.116;2023-04-09T05:41:23;5.05;;;2.38;;
24163;SDS011;12319;49.204;8.116;2023-04-09T05:43:49;5.60;;;2.47;;
24163;SDS011;12319;49.204;8.116;2023-04-09T05:46:14;4.93;;;2.22;;
24163;SDS011;12319;49.204;8.116;2023-04-09T05:48:40;5.90;;;2.67;;
24163;SDS011;12319;49.204;8.116;2023-04-09T05:51:06;4.78;;;2.25;;
24163;SDS011;12319;49.204;8.116;2023-04-09T05:53:33;5.67;;;2.47;;
24163;SDS011;12319;49.204;8.116;2023-04-09T05:55:59;4.78;;;2.33;;
24163;SDS011;12319;49.204;8.116;2023-04-09T05:58:24;4.63;;;2.23;;
24163;SDS011;12319;49.204;8.116;2023-04-09T06:00:52;5.40;;;2.33;;
24163;SDS011;12319;49.204;8.116;2023-04-09T06:03:17;4.87;;;2.20;;
24163;SDS011;12319;49.204;8.116;2023-04-09T06:05:44;5.43;;;2.53;;
24163;SDS011;12319;49.204;8.116;2023-04-09T06:08:10;5.45;;;2.50;;
24163;SDS011;12319;49.204;8.116;2023-04-09T06:10:36;6.03;;;2.90;;
24163;SDS011;12319;49.204;8.116;2023-04-09T06:13:02;6.70;;;3.05;;
24163;SDS011;12319;49.204;8.116;2023-04-09T06:15:27;6.10;;;3.10;;
24163;SDS011;12319;49.204;8.116;2023-04-09T06:17:53;5.77;;;2.53;;
24163;SDS011;12319;49.204;8.116;2023-04-09T06:20:19;5.50;;;2.67;;
24163;SDS011;12319;49.204;8.116;2023-04-09T06:22:45;4.43;;;2.10;;
24163;SDS011;12319;49.204;8.116;2023-04-09T06:25:10;7.50;;;3.20;;
24163;SDS011;12319;49.204;8.116;2023-04-09T06:27:36;6.07;;;2.93;;
24163;SDS011;12319;49.204;8.116;2023-04-09T06:30:01;6.40;;;2.70;;
24163;SDS011;12319;49.204;8.116;2023-04-09T06:32:27;6.07;;;2.75;;
24163;SDS011;12319;49.204;8.116;2023-04-09T06:34:52;6.37;;;3.00;;
24163;SDS011;12319;49.204;8.116;2023-04-09T06:37:18;5.70;;;2.63;;
24163;SDS011;12319;49.204;8.116;2023-04-09T06:39:43;5.32;;;2.70;;
24163;SDS011;12319;49.204;8.116;2023-04-09T06:42:09;5.90;;;2.87;;
24163;SDS011;12319;49.204;8.116;2023-04-09T06:44:35;6.40;;;3.10;;
24163;SDS011;12319;49.204;8.116;2023-04-09T06:47:00;6.22;;;3.20;;
24163;SDS011;12319;49.204;8.116;2023-04-09T06:49:26;7.57;;;3.23;;
24163;SDS011;12319;49.204;8.116;2023-04-09T06:51:51;6.15;;;2.67;;
24163;SDS011;12319;49.204;8.116;2023-04-09T06:54:17;5.90;;;2.80;;
24163;SDS011;12319;49.204;8.116;2023-04-09T06:56:43;7.72;;;3.40;;
24163;SDS011;12319;49.204;8.116;2023-04-09T06:59:09;7.80;;;4.00;;
24163;SDS011;12319;49.204;8.116;2023-04-09T07:01:35;7.53;;;4.65;;
24163;SDS011;12319;49.204;8.116;2023-04-09T07:04:01;7.75;;;4.45;;
24163;SDS011;12319;49.204;8.116;2023-04-09T07:06:27;6.67;;;3.73;;
24163;SDS011;12319;49.204;8.116;2023-04-09T07:08:53;7.28;;;4.10;;
24163;SDS011;12319;49.204;8.116;2023-04-09T07:11:18;6.83;;;4.23;;
24163;SDS011;12319;49.204;8.116;2023-04-09T07:13:44;6.70;;;4.10;;
24163;SDS011;12319;49.204;8.116;2023-04-09T07:16:09;6.20;;;3.07;;
24163;SDS011;12319;49.204;8.116;2023-04-09T07:18:35;7.27;;;3.70;;
24163;SDS011;12319;49.204;8.116;2023-04-09T07:21:00;6.60;;;3.50;;
24163;SDS011;12319;49.204;8.116;2023-04-09T07:23:26;6.93;;;3.93;;
24163;SDS011;12319;49.204;8.116;2023-04-09T07:25:52;7.73;;;3.87;;
24163;SDS011;12319;49.204;8.116;2023-04-09T07:28:17;6.80;;;3.87;;
24163;SDS011;12319;49.204;8.116;2023-04-09T07:30:43;6.95;;;4.13;;
24163;SDS011;12319;49.204;8.116;2023-04-09T07:33:10;7.32;;;4.03;;
24163;SDS011;12319;49.204;8.116;2023-04-09T07:35:35;6.73;;;3.87;;
24163;SDS011;12319;49.204;8.116;2023-04-09T07:38:01;7.47;;;4.20;;
24163;SDS011;12319;49.204;8.116;2023-04-09T07:40:27;7.35;;;4.07;;
24163;SDS011;12319;49.204;8.116;2023-04-09T07:42:52;7.30;;;4.40;;
24163;SDS011;12319;49.204;8.116;2023-04-09T07:45:19;7.13;;;4.03;;
24163;SDS011;12319;49.204;8.116;2023-04-09T07:47:45;7.60;;;4.35;;
24163;SDS011;12319;49.204;8.116;2023-04-09T07:50:11;6.87;;;4.00;;
24163;SDS011;12319;49.204;8.116;2023-04-09T07:52:36;6.80;;;4.05;;
24163;SDS011;12319;49.204;8.116;2023-04-09T07:55:02;6.87;;;3.83;;
24163;SDS011;12319;49.204;8.116;2023-04-09T07:57:31;6.57;;;3.65;;
24163;SDS011;12319;49.204;8.116;2023-04-09T07:59:57;6.25;;;3.72;;
24163;SDS011;12319;49.204;8.116;2023-04-09T08:02:22;6.87;;;4.13;;
24163;SDS011;12319;49.204;8.116;2023-04-09T08:04:48;7.10;;;4.13;;
24163;SDS011;12319;49.204;8.116;2023-04-09T08:07:13;7.22;;;3.50;;
24163;SDS011;12319;49.204;8.116;2023-04-09T08:09:39;5.47;;;3.50;;
24163;SDS011;12319;49.204;8.116;2023-04-09T08:12:05;6.25;;;4.07;;
24163;SDS011;12319;49.204;8.116;2023-04-09T08:14:30;6.03;;;3.57;;
24163;SDS011;12319;49.204;8.116;2023-04-09T08:16:56;6.70;;;4.10;;
24163;SDS011;12319;49.204;8.116;2023-04-09T08:19:22;5.90;;;3.85;;
24163;SDS011;12319;49.204;8.116;2023-04-09T08:21:48;6.07;;;3.90;;
24163;SDS011;12319;49.204;8.116;2023-04-09T08:24:14;6.15;;;3.70;;
24163;SDS011;12319;49.204;8.116;2023-04-09T08:26:40;6.40;;;4.35;;
24163;SDS011;12319;49.204;8.116;2023-04-09T08:29:07;5.72;;;3.53;;
24163;SDS011;12319;49.204;8.116;2023-04-09T08:31:35;6.50;;;3.90;;
24163;SDS011;12319;49.204;8.116;2023-04-09T08:34:01;6.07;;;3.57;;
24163;SDS011;12319;49.204;8.116;2023-04-09T08:36:27;5.55;;;3.50;;
24163;SDS011;12319;49.204;8.116;2023-04-09T08:38:52;5.83;;;3.77;;
24163;SDS011;12319;49.204;8.116;2023-04-09T08:41:20;5.80;;;3.92;;
24163;SDS011;12319;49.204;8.116;2023-04-09T08:43:48;5.90;;;3.58;;
24163;SDS011;12319;49.204;8.116;2023-04-09T08:46:15;6.10;;;3.80;;
24163;SDS011;12319;49.204;8.116;2023-04-09T08:48:42;5.47;;;3.37;;
24163;SDS011;12319;49.204;8.116;2023-04-09T08:51:13;5.47;;;3.17;;
24163;SDS011;12319;49.204;8.116;2023-04-09T08:53:44;5.28;;;3.20;;
24163;SDS011;12319;49.204;8.116;2023-04-09T08:56:11;9.48;;;3.97;;
24163;SDS011;12319;49.204;8.116;2023-04-09T08:58:41;6.05;;;3.65;;
24163;SDS011;12319;49.204;8.116;2023-04-09T09:01:18;5.40;;;3.17;;
24163;SDS011;12319;49.204;8.116;2023-04-09T09:03:54;5.30;;;3.05;;
24163;SDS011;12319;49.204;8.116;2023-04-09T09:06:23;6.70;;;3.90;;
24163;SDS011;12319;49.204;8.116;2023-04-09T09:09:01;6.60;;;3.67;;
24163;SDS011;12319;49.204;8.116;2023-04-09T09:11:27;7.10;;;3.97;;
24163;SDS011;12319;49.204;8.116;2023-04-09T09:16:30;6.47;;;3.72;;
24163;SDS011;12319;49.204;8.116;2023-04-09T09:18:59;6.32;;;3.85;;
24163;SDS011;12319;49.204;8.116;2023-04-09T09:21:25;7.10;;;4.03;;
24163;SDS011;12319;49.204;8.116;2023-04-09T09:23:52;7.40;;;3.83;;
24163;SDS011;12319;49.204;8.116;2023-04-09T09:26:28;6.73;;;3.60;;
24163;SDS011;12319;49.204;8.116;2023-04-09T09:28:55;6.45;;;3.58;;
24163;SDS011;12319;49.204;8.116;2023-04-09T09:31:24;7.10;;;4.25;;
24163;SDS011;12319;49.204;8.116;2023-04-09T09:33:50;6.53;;;3.58;;
24163;SDS011;12319;49.204;8.116;2023-04-09T09:36:32;7.03;;;4.07;;
24163;SDS011;12319;49.204;8.116;2023-04-09T09:38:59;7.57;;;4.27;;
24163;SDS011;12319;49.204;8.116;2023-04-09T09:41:33;6.97;;;3.92;;
24163;SDS011;12319;49.204;8.116;2023-04-09T09:43:59;7.60;;;4.00;;
24163;SDS011;12319;49.204;8.116;2023-04-09T09:46:25;6.90;;;4.00;;
24163;SDS011;12319;49.204;8.116;2023-04-09T09:48:51;7.57;;;3.92;;
24163;SDS011;12319;49.204;8.116;2023-04-09T09:51:17;7.32;;;3.65;;
24163;SDS011;12319;49.204;8.116;2023-04-09T09:53:46;7.03;;;4.05;;
24163;SDS011;12319;49.204;8.116;2023-04-09T09:56:17;6.53;;;3.42;;
24163;SDS011;12319;49.204;8.116;2023-04-09T09:58:52;7.53;;;4.25;;
24163;SDS011;12319;49.204;8.116;2023-04-09T10:01:23;7.05;;;3.75;;
24163;SDS011;12319;49.204;8.116;2023-04-09T10:03:51;6.13;;;3.15;;
24163;SDS011;12319;49.204;8.116;2023-04-09T10:06:20;5.97;;;3.15;;
24163;SDS011;12319;49.204;8.116;2023-04-09T10:08:47;7.40;;;3.70;;
24163;SDS011;12319;49.204;8.116;2023-04-09T10:11:14;5.88;;;2.85;;
24163;SDS011;12319;49.204;8.116;2023-04-09T10:13:42;6.03;;;3.22;;
24163;SDS011;12319;49.204;8.116;2023-04-09T10:16:14;5.93;;;3.15;;
24163;SDS011;12319;49.204;8.116;2023-04-09T10:18:40;6.80;;;3.78;;
24163;SDS011;12319;49.204;8.116;2023-04-09T10:21:08;6.32;;;3.20;;
24163;SDS011;12319;49.204;8.116;2023-04-09T10:23:41;6.43;;;3.60;;
24163;SDS011;12319;49.204;8.116;2023-04-09T10:26:08;6.53;;;3.55;;
24163;SDS011;12319;49.204;8.116;2023-04-09T10:28:38;6.05;;;3.00;;
24163;SDS011;12319;49.204;8.116;2023-04-09T10:31:04;6.63;;;3.83;;
24163;SDS011;12319;49.204;8.116;2023-04-09T10:33:31;6.47;;;3.80;;
24163;SDS011;12319;49.204;8.116;2023-04-09T10:36:00;6.50;;;3.72;;
24163;SDS011;12319;49.204;8.116;2023-04-09T10:38:36;7.53;;;3.53;;
24163;SDS011;12319;49.204;8.116;2023-04-09T10:41:27;6.25;;;3.33;;
24163;SDS011;12319;49.204;8.116;2023-04-09T10:43:55;7.07;;;3.43;;
24163;SDS011;12319;49.204;8.116;2023-04-09T10:49:30;6.40;;;3.58;;
24163;SDS011;12319;49.204;8.116;2023-04-09T10:52:03;5.85;;;2.83;;
24163;SDS011;12319;49.204;8.116;2023-04-09T10:57:15;5.93;;;2.90;;
24163;SDS011;12319;49.204;8.116;2023-04-09T10:59:55;6.05;;;2.78;;
24163;SDS011;12319;49.204;8.116;2023-04-09T11:05:32;4.03;;;2.05;;
24163;SDS011;12319;49.204;8.116;2023-04-09T11:08:06;5.57;;;2.85;;
24163;SDS011;12319;49.204;8.116;2023-04-09T11:10:36;6.97;;;3.67;;
24163;SDS011;12319;49.204;8.116;2023-04-09T11:13:03;5.97;;;2.78;;
24163;SDS011;12319;49.204;8.116;2023-04-09T11:15:29;5.90;;;3.35;;
24163;SDS011;12319;49.204;8.116;2023-04-09T11:17:56;5.22;;;2.60;;
24163;SDS011;12319;49.204;8.116;2023-04-09T11:20:22;5.90;;;2.97;;
24163;SDS011;12319;49.204;8.116;2023-04-09T11:22:50;5.97;;;3.20;;
24163;SDS011;12319;49.204;8.116;2023-04-09T11:25:18;4.93;;;2.63;;
24163;SDS011;12319;49.204;8.116;2023-04-09T11:27:48;4.85;;;2.40;;
24163;SDS011;12319;49.204;8.116;2023-04-09T11:30:14;4.40;;;2.00;;
24163;SDS011;12319;49.204;8.116;2023-04-09T11:32:39;5.00;;;2.50;;
24163;SDS011;12319;49.204;8.116;2023-04-09T11:35:12;5.72;;;2.95;;
24163;SDS011;12319;49.204;8.116;2023-04-09T11:37:39;5.55;;;2.65;;
24163;SDS011;12319;49.204;8.116;2023-04-09T11:40:06;5.93;;;3.20;;
24163;SDS011;12319;49.204;8.116;2023-04-09T11:42:38;6.35;;;3.28;;
24163;SDS011;12319;49.204;8.116;2023-04-09T11:45:03;6.65;;;3.25;;
24163;SDS011;12319;49.204;8.116;2023-04-09T11:47:29;7.93;;;4.13;;
24163;SDS011;12319;49.204;8.116;2023-04-09T11:49:55;7.32;;;3.92;;
24163;SDS011;12319;49.204;8.116;2023-04-09T11:52:21;6.30;;;3.13;;
24163;SDS011;12319;49.204;8.116;2023-04-09T11:54:47;5.45;;;2.90;;
24163;SDS011;12319;49.204;8.116;2023-04-09T11:57:13;6.18;;;3.25;;
24163;SDS011;12319;49.204;8.116;2023-04-09T11:59:39;5.73;;;2.80;;
24163;SDS011;12319;49.204;8.116;2023-04-09T12:02:05;5.40;;;3.10;;
24163;SDS011;12319;49.204;8.116;2023-04-09T12:04:31;5.07;;;2.58;;
24163;SDS011;12319;49.204;8.116;2023-04-09T12:06:57;6.87;;;2.80;;
24163;SDS011;12319;49.204;8.116;2023-04-09T12:09:23;5.40;;;2.60;;
24163;SDS011;12319;49.204;8.116;2023-04-09T12:11:49;6.00;;;3.20;;
24163;SDS011;12319;49.204;8.116;2023-04-09T12:14:15;5.80;;;2.83;;
24163;SDS011;12319;49.204;8.116;2023-04-09T12:16:42;5.75;;;2.92;;
24163;SDS011;12319;49.204;8.116;2023-04-09T12:19:09;6.03;;;3.10;;
24163;SDS011;12319;49.204;8.116;2023-04-09T12:21:48;5.82;;;2.80;;
24163;SDS011;12319;49.204;8.116;2023-04-09T12:24:17;4.95;;;2.55;;
24163;SDS011;12319;49.204;8.116;2023-04-09T12:26:44;5.35;;;2.63;;
24163;SDS011;12319;49.204;8.116;2023-04-09T12:29:10;5.00;;;2.53;;
24163;SDS011;12319;49.204;8.116;2023-04-09T12:31:40;5.60;;;2.75;;
24163;SDS011;12319;49.204;8.116;2023-04-09T12:37:28;4.15;;;2.15;;
24163;SDS011;12319;49.204;8.116;2023-04-09T12:39:53;4.70;;;2.40;;
24163;SDS011;12319;49.204;8.116;2023-04-09T12:42:19;4.63;;;2.30;;
24163;SDS011;12319;49.204;8.116;2023-04-09T12:44:44;4.60;;;2.20;;
24163;SDS011;12319;49.204;8.116;2023-04-09T12:47:10;5.33;;;2.33;;
24163;SDS011;12319;49.204;8.116;2023-04-09T12:49:36;4.85;;;2.50;;
24163;SDS011;12319;49.204;8.116;2023-04-09T12:52:01;4.78;;;2.50;;
24163;SDS011;12319;49.204;8.116;2023-04-09T12:54:27;4.68;;;2.20;;
24163;SDS011;12319;49.204;8.116;2023-04-09T12:56:53;5.77;;;2.77;;
24163;SDS011;12319;49.204;8.116;2023-04-09T12:59:18;5.15;;;2.53;;
24163;SDS011;12319;49.204;8.116;2023-04-09T13:01:44;5.57;;;2.58;;
24163;SDS011;12319;49.204;8.116;2023-04-09T13:04:10;5.05;;;2.20;;
24163;SDS011;12319;49.204;8.116;2023-04-09T13:06:35;4.67;;;2.20;;
24163;SDS011;12319;49.204;8.116;2023-04-09T13:09:01;5.20;;;2.60;;
24163;SDS011;12319;49.204;8.116;2023-04-09T13:11:27;6.10;;;3.17;;
24163;SDS011;12319;49.204;8.116;2023-04-09T13:13:52;5.20;;;2.72;;
24163;SDS011;12319;49.204;8.116;2023-04-09T13:16:18;5.20;;;2.77;;
24163;SDS011;12319;49.204;8.116;2023-04-09T13:18:44;5.07;;;2.40;;
24163;SDS011;12319;49.204;8.116;2023-04-09T13:21:09;4.50;;;2.22;;
24163;SDS011;12319;49.204;8.116;2023-04-09T13:23:36;4.35;;;1.90;;
24163;SDS011;12319;49.204;8.116;2023-04-09T13:26:02;4.37;;;1.80;;
24163;SDS011;12319;49.204;8.116;2023-04-09T13:28:28;4.70;;;2.07;;
24163;SDS011;12319;49.204;8.116;2023-04-09T13:30:53;4.60;;;2.13;;
24163;SDS011;12319;49.204;8.116;2023-04-09T13:33:19;4.57;;;2.33;;
24163;SDS011;12319;49.204;8.116;2023-04-09T13:35:45;6.30;;;2.80;;
24163;SDS011;12319;49.204;8.116;2023-04-09T13:38:10;5.13;;;2.40;;
24163;SDS011;12319;49.204;8.116;2023-04-09T13:40:36;5.20;;;2.30;;
24163;SDS011;12319;49.204;8.116;2023-04-09T13:43:01;4.78;;;2.20;;
24163;SDS011;12319;49.204;8.116;2023-04-09T13:45:27;5.50;;;2.50;;
24163;SDS011;12319;49.204;8.116;2023-04-09T13:47:53;5.00;;;2.42;;
24163;SDS011;12319;49.204;8.116;2023-04-09T13:50:18;3.47;;;1.70;;
24163;SDS011;12319;49.204;8.116;2023-04-09T13:52:44;4.90;;;2.28;;
24163;SDS011;12319;49.204;8.116;2023-04-09T13:55:09;4.90;;;2.35;;
24163;SDS011;12319;49.204;8.116;2023-04-09T13:57:35;4.10;;;2.10;;
24163;SDS011;12319;49.204;8.116;2023-04-09T14:00:00;4.30;;;2.00;;
24163;SDS011;12319;49.204;8.116;2023-04-09T14:02:28;4.47;;;2.25;;
24163;SDS011;12319;49.204;8.116;2023-04-09T14:04:54;5.22;;;2.50;;
24163;SDS011;12319;49.204;8.116;2023-04-09T14:07:20;4.23;;;1.93;;
24163;SDS011;12319;49.204;8.116;2023-04-09T14:09:46;5.05;;;2.45;;
24163;SDS011;12319;49.204;8.116;2023-04-09T14:12:12;4.90;;;2.60;;
24163;SDS011;12319;49.204;8.116;2023-04-09T14:14:37;4.15;;;2.10;;
24163;SDS011;12319;49.204;8.116;2023-04-09T14:17:03;4.30;;;2.17;;
24163;SDS011;12319;49.204;8.116;2023-04-09T14:19:28;4.53;;;1.83;;
24163;SDS011;12319;49.204;8.116;2023-04-09T14:21:54;4.55;;;2.20;;
24163;SDS011;12319;49.204;8.116;2023-04-09T14:24:19;4.73;;;2.10;;
24163;SDS011;12319;49.204;8.116;2023-04-09T14:26:47;3.80;;;1.90;;
24163;SDS011;12319;49.204;8.116;2023-04-09T14:29:13;5.03;;;2.55;;
24163;SDS011;12319;49.204;8.116;2023-04-09T14:31:40;4.85;;;2.13;;
24163;SDS011;12319;49.204;8.116;2023-04-09T14:34:06;3.80;;;1.98;;
24163;SDS011;12319;49.204;8.116;2023-04-09T14:36:32;4.72;;;2.30;;
24163;SDS011;12319;49.204;8.116;2023-04-09T14:38:57;4.40;;;2.20;;
24163;SDS011;12319;49.204;8.116;2023-04-09T14:41:23;3.85;;;1.65;;
24163;SDS011;12319;49.204;8.116;2023-04-09T14:43:50;4.03;;;1.95;;
24163;SDS011;12319;49.204;8.116;2023-04-09T14:46:15;4.20;;;2.10;;
24163;SDS011;12319;49.204;8.116;2023-04-09T14:48:41;3.57;;;1.87;;
24163;SDS011;12319;49.204;8.116;2023-04-09T14:51:09;4.40;;;2.10;;
24163;SDS011;12319;49.204;8.116;2023-04-09T14:53:35;4.78;;;2.03;;
24163;SDS011;12319;49.204;8.116;2023-04-09T14:56:01;4.38;;;2.10;;
24163;SDS011;12319;49.204;8.116;2023-04-09T14:58:27;5.28;;;1.92;;
24163;SDS011;12319;49.204;8.116;2023-04-09T15:00:53;4.23;;;2.00;;
24163;SDS011;12319;49.204;8.116;2023-04-09T15:03:18;3.90;;;1.90;;
24163;SDS011;12319;49.204;8.116;2023-04-09T15:05:45;4.20;;;2.00;;
24163;SDS011;12319;49.204;8.116;2023-04-09T15:08:11;3.63;;;1.65;;
24163;SDS011;12319;49.204;8.116;2023-04-09T15:10:37;4.75;;;2.20;;